Time;durP1;ratioP1;P1;durP2;ratioP2;P2;SDS_P1;SDS_P2;PMS_P1;PMS_P2;Temp;Humidity;BMP_temperature;BMP_pressure;BME280_temperature;BME280_humidity;BME280_pressure;Samples;Min_cycle;Max_cycle;Signal;HPM_P1;HPM_P2
2022/11/03 00:03:27;;;;;;;11.30;2.90;;;;;;;10.72;96.54;101195.91;10541602;28;20247;-66
2022/11/03 00:08:29;;;;;;;9.38;2.95;;;;;;;10.75;96.16;101193.19;10541787;28;20060;-67
2022/11/03 00:13:31;;;;;;;13.10;3.05;;;;;;;10.87;95.55;101193.63;10538736;28;20492;-69
2022/11/03 00:18:34;;;;;;;9.82;2.55;;;;;;;10.89;95.45;101181.38;10540902;28;20517;-69
2022/11/03 00:23:38;;;;;;;17.98;2.50;;;;;;;10.93;95.43;101181.19;10541200;28;20056;-68
2022/11/03 00:28:42;;;;;;;14.65;3.13;;;;;;;10.95;94.86;101175.94;10540436;28;20052;-70
2022/11/03 00:33:46;;;;;;;13.70;2.85;;;;;;;10.95;94.15;101171.53;10540523;28;20056;-67
2022/11/03 00:38:49;;;;;;;10.88;3.20;;;;;;;10.99;94.39;101163.59;10540205;28;20120;-71
2022/11/03 00:43:52;;;;;;;12.95;2.85;;;;;;;11.21;92.41;101153.13;10537560;28;20388;-66
2022/11/03 00:48:55;;;;;;;11.75;3.00;;;;;;;11.11;92.64;101139.59;10539636;28;20503;-75
2022/11/03 00:53:59;;;;;;;9.95;2.30;;;;;;;11.07;92.96;101133.66;10539649;28;20390;-69
2022/11/03 00:59:03;;;;;;;10.18;2.78;;;;;;;11.15;93.43;101135.94;10539526;28;20093;-69
2022/11/03 01:09:29;;;;;;;10.65;2.33;;;;;;;11.20;92.82;101109.66;10536852;28;20078;-68
2022/11/03 01:14:35;;;;;;;5.32;2.40;;;;;;;11.28;92.52;101102.34;10538742;28;20048;-71
2022/11/03 01:19:39;;;;;;;13.93;2.42;;;;;;;11.38;91.85;101101.94;10539175;28;20060;-72
2022/11/03 01:24:42;;;;;;;12.48;3.08;;;;;;;11.48;91.60;101095.44;10538067;28;20056;-66
2022/11/03 01:29:44;;;;;;;10.35;3.05;;;;;;;11.54;90.40;101087.34;10538070;28;20492;-67
2022/11/03 01:34:47;;;;;;;10.85;2.72;;;;;;;11.57;90.96;101068.88;10538050;28;20056;-67
2022/11/03 01:39:49;;;;;;;10.50;2.70;;;;;;;11.65;90.63;101070.31;10535377;28;20048;-67
2022/11/03 01:44:50;;;;;;;13.43;2.35;;;;;;;11.58;91.06;101065.38;10538067;28;20052;-68
2022/11/03 01:50:00;;;;;;;14.23;3.08;;;;;;;11.56;91.09;101061.97;10537390;28;20044;-70
2022/11/03 01:55:08;;;;;;;8.10;2.40;;;;;;;11.77;90.43;101051.47;10537424;28;20052;-70
2022/11/03 02:00:12;;;;;;;11.00;2.90;;;;;;;11.55;91.83;101039.38;10537207;28;20048;-67
2022/11/03 02:05:18;;;;;;;6.35;2.42;;;;;;;11.48;92.59;101042.31;10538226;28;20652;-67
2022/11/03 02:10:20;;;;;;;10.70;2.90;;;;;;;11.51;92.16;101032.59;10534457;28;20048;-69
2022/11/03 02:15:23;;;;;;;11.70;2.47;;;;;;;11.51;92.33;101029.09;10536659;28;20052;-67
2022/11/03 02:20:31;;;;;;;11.80;3.15;;;;;;;11.38;93.52;101026.16;10536976;28;20105;-67
2022/11/03 02:25:43;;;;;;;12.50;3.17;;;;;;;11.35;93.05;101015.88;10536243;28;20573;-67
2022/11/03 02:30:53;;;;;;;14.23;3.55;;;;;;;11.33;93.59;101014.16;10536431;28;20397;-66
2022/11/03 02:36:05;;;;;;;8.63;2.50;;;;;;;11.30;93.43;100998.59;10537736;28;20054;-68
2022/11/03 02:41:09;;;;;;;;;;;;;;;11.31;94.27;100989.00;10543127;28;20109;-65
2022/11/03 02:46:15;;;;;;;8.30;2.45;;;;;;;11.30;94.47;100980.31;10545309;28;19926;-67
2022/11/03 02:51:16;;;;;;;10.63;2.33;;;;;;;11.30;94.62;100967.25;10545291;28;20098;-67
2022/11/03 02:56:24;;;;;;;11.68;2.45;;;;;;;11.22;95.83;100958.91;10544412;28;20054;-65
2022/11/03 03:01:35;;;;;;;7.90;2.65;;;;;;;11.16;96.39;100959.19;10543954;28;20467;-66
2022/11/03 03:06:43;;;;;;;10.40;2.70;;;;;;;11.25;95.90;100956.16;10544509;28;20048;-65
2022/11/03 03:11:50;;;;;;;10.35;3.00;;;;;;;11.30;96.16;100941.13;10541175;28;20048;-68
2022/11/03 03:17:00;;;;;;;13.07;2.90;;;;;;;11.30;95.95;100941.13;10543550;28;20106;-69
2022/11/03 03:22:14;;;;;;;14.60;2.90;;;;;;;11.35;95.70;100927.03;10543008;28;20410;-65
2022/11/03 03:27:24;;;;;;;13.80;2.92;;;;;;;11.36;95.30;100918.28;10543129;28;20056;-67
2022/11/03 03:32:31;;;;;;;11.20;2.67;;;;;;;11.24;96.67;100915.28;10543154;28;20044;-71
2022/11/03 03:37:37;;;;;;;8.85;2.88;;;;;;;11.24;97.08;100923.13;10542842;28;20115;-67
2022/11/03 03:42:45;;;;;;;14.50;3.03;;;;;;;11.35;97.04;100906.13;10540365;28;20048;-69
2022/11/03 03:47:48;;;;;;;10.25;2.90;;;;;;;11.28;97.71;100906.41;10542317;28;20109;-69
2022/11/03 03:52:49;;;;;;;9.27;2.45;;;;;;;11.27;97.30;100896.88;10541812;28;20501;-69
2022/11/03 03:57:52;;;;;;;11.05;3.85;;;;;;;11.35;97.80;100877.41;10542031;28;20105;-69
2022/11/03 04:02:57;;;;;;;9.18;2.70;;;;;;;11.31;97.64;100874.91;10541797;28;20043;-68
2022/11/03 04:07:58;;;;;;;9.85;3.13;;;;;;;11.31;98.29;100876.66;10541179;28;20134;-72
2022/11/03 04:23:41;;;;;;;11.15;3.00;;;;;;;11.37;98.90;100870.31;10540815;28;20040;-70
2022/11/03 04:28:46;;;;;;;11.77;2.85;;;;;;;11.30;100.00;100859.31;10540331;28;20507;-70
2022/11/03 04:33:48;;;;;;;6.80;2.55;;;;;;;11.52;98.95;100846.09;10540477;28;20462;-69
2022/11/03 04:38:52;;;;;;;10.43;2.90;;;;;;;11.46;99.38;100846.38;10540578;28;20048;-69
2022/11/03 04:43:57;;;;;;;10.40;3.13;;;;;;;11.38;100.00;100843.28;10537579;28;20052;-69
2022/11/03 04:49:03;;;;;;;10.30;3.10;;;;;;;11.46;100.00;100838.53;10540358;28;20056;-68
2022/11/03 04:54:18;;;;;;;9.90;2.50;;;;;;;11.44;100.00;100835.16;10539565;28;20101;-70
2022/11/03 04:59:21;;;;;;;9.10;2.80;;;;;;;11.39;100.00;100831.91;10538999;28;20101;-71
2022/11/03 05:04:23;;;;;;;9.25;2.60;;;;;;;11.39;100.00;100818.84;10539142;28;20048;-70
2022/11/03 05:09:29;;;;;;;11.43;2.97;;;;;;;11.35;100.00;100814.69;10536969;28;20093;-70
2022/11/03 05:14:33;;;;;;;12.20;2.47;;;;;;;11.35;100.00;100809.47;10538683;28;20048;-71
2022/11/03 05:19:41;;;;;;;6.20;2.05;;;;;;;11.45;100.00;100797.66;10538658;28;20048;-69
2022/11/03 05:24:43;;;;;;;7.15;2.17;;;;;;;11.42;100.00;100793.41;10538298;28;20052;-71
2022/11/03 05:29:49;;;;;;;9.20;2.78;;;;;;;11.46;100.00;100783.66;10538202;28;20051;-72
2022/11/03 05:34:54;;;;;;;10.98;2.78;;;;;;;11.46;100.00;100767.97;10538195;28;20048;-71
2022/11/03 05:40:00;;;;;;;9.80;2.65;;;;;;;11.46;100.00;100765.38;10535615;28;20052;-72
2022/11/03 05:45:21;;;;;;;13.35;3.20;;;;;;;11.48;100.00;100755.69;10538160;28;20059;-71
2022/11/03 05:50:26;;;;;;;11.05;3.22;;;;;;;11.50;100.00;100738.16;10537897;28;20052;-67
2022/11/03 05:55:33;;;;;;;8.45;2.53;;;;;;;11.52;100.00;100738.94;10537432;28;20056;-68
2022/11/03 06:00:41;;;;;;;16.77;3.42;;;;;;;11.51;100.00;100734.66;10537811;28;20100;-67
2022/11/03 06:05:43;;;;;;;11.25;2.97;;;;;;;11.53;100.00;100727.56;10537028;28;20127;-70
2022/11/03 06:10:51;;;;;;;8.25;2.30;;;;;;;11.53;100.00;100722.34;10534160;28;20059;-70
2022/11/03 06:16:01;;;;;;;15.73;2.67;;;;;;;11.44;100.00;100721.03;10537274;28;20048;-72
2022/11/03 06:21:09;;;;;;;10.40;3.00;;;;;;;11.48;100.00;100713.88;10536712;28;20044;-67
2022/11/03 06:26:20;;;;;;;8.52;2.88;;;;;;;11.45;100.00;100708.81;10536636;28;20090;-71
2022/11/03 06:31:27;;;;;;;10.13;2.67;;;;;;;11.47;100.00;100699.13;10537029;28;20048;-71
2022/11/03 06:36:36;;;;;;;10.90;2.80;;;;;;;11.48;100.00;100698.22;10536278;28;20560;-67
2022/11/03 06:41:38;;;;;;;8.90;3.03;;;;;;;11.55;100.00;100699.59;10533813;28;20466;-71
2022/11/03 06:46:41;;;;;;;;;;;;;;;11.49;100.00;100699.91;10536730;28;20513;-72
2022/11/03 06:51:43;;;;;;;9.02;2.78;;;;;;;11.57;100.00;100697.75;10536336;28;19946;-73
2022/11/03 06:56:44;;;;;;;10.10;2.85;;;;;;;11.52;100.00;100699.75;10536354;28;20063;-71
2022/11/03 07:01:55;;;;;;;9.38;2.90;;;;;;;11.55;100.00;100697.00;10536480;28;20274;-68
2022/11/03 07:07:03;;;;;;;8.27;2.58;;;;;;;11.59;100.00;100695.06;10535833;28;20048;-70
2022/11/03 07:12:18;;;;;;;10.57;2.63;;;;;;;11.54;100.00;100679.63;10533729;28;20097;-72
2022/11/03 07:17:22;;;;;;;11.85;3.22;;;;;;;11.61;100.00;100664.50;10536018;28;20044;-72
2022/11/03 07:22:27;;;;;;;11.82;3.00;;;;;;;11.68;100.00;100673.72;10537514;28;20044;-70
2022/11/03 07:27:33;;;;;;;9.60;2.72;;;;;;;11.74;100.00;100667.34;10542937;28;20056;-74
2022/11/03 07:32:36;;;;;;;10.27;3.00;;;;;;;11.79;100.00;100654.88;10542839;28;20270;-70
2022/11/03 07:37:37;;;;;;;8.88;2.55;;;;;;;11.87;100.00;100645.78;10541460;28;20452;-70
2022/11/03 07:42:39;;;;;;;11.93;3.03;;;;;;;11.94;99.90;100647.19;10539183;28;20051;-69
2022/11/03 07:47:44;;;;;;;7.45;2.67;;;;;;;11.98;99.72;100649.53;10541052;28;20418;-69
2022/11/03 07:52:45;;;;;;;9.35;2.63;;;;;;;12.05;99.05;100660.53;10541007;28;20078;-68
2022/11/03 07:57:47;;;;;;;9.48;2.80;;;;;;;12.11;98.41;100662.00;10540619;28;20048;-69
2022/11/03 08:02:57;;;;;;;7.25;2.70;;;;;;;12.13;97.99;100665.41;10541322;28;20052;-70
2022/11/03 08:08:00;;;;;;;5.60;2.05;;;;;;;12.14;98.06;100653.19;10541456;28;20499;-67
2022/11/03 08:13:01;;;;;;;10.00;2.45;;;;;;;12.18;97.74;100633.78;10539020;28;20143;-70
2022/11/03 08:18:04;;;;;;;8.75;2.85;;;;;;;12.18;97.44;100628.53;10542272;28;20066;-70
2022/11/03 08:23:06;;;;;;;8.10;2.67;;;;;;;12.25;97.73;100608.13;10541261;28;20101;-69
2022/11/03 08:28:08;;;;;;;9.45;2.92;;;;;;;12.27;97.04;100596.66;10540705;28;20109;-70
2022/11/03 08:33:11;;;;;;;;;;;;;;;12.34;96.34;100584.06;10540901;28;20040;-69
2022/11/03 08:38:13;;;;;;;6.70;2.55;;;;;;;12.41;95.45;100581.97;10541007;28;19973;-68
2022/11/03 08:43:14;;;;;;;8.13;2.08;;;;;;;12.48;95.40;100557.16;10537815;28;20601;-68
2022/11/03 08:48:19;;;;;;;10.88;2.60;;;;;;;12.57;94.38;100525.25;10528091;28;20180;-71
2022/11/03 08:53:22;;;;;;;5.10;2.30;;;;;;;12.82;93.39;100523.00;10533465;28;20082;-70
2022/11/03 08:58:23;;;;;;;11.15;3.00;;;;;;;12.89;92.06;100508.63;10538678;28;20082;-69
2022/11/03 09:03:26;;;;;;;7.25;2.63;;;;;;;12.94;90.85;100505.75;10539125;28;20473;-66
2022/11/03 09:08:28;;;;;;;8.40;2.83;;;;;;;13.15;89.95;100487.94;10538559;28;20056;-70
2022/11/03 09:13:29;;;;;;;5.60;2.22;;;;;;;13.21;88.63;100476.25;10536169;28;20483;-72
2022/11/03 09:18:32;;;;;;;7.50;2.30;;;;;;;13.37;89.64;100460.44;10538955;28;20048;-68
2022/11/03 09:23:34;;;;;;;6.90;2.47;;;;;;;13.27;89.26;100444.44;10539127;28;20040;-68
2022/11/03 09:28:36;;;;;;;11.27;2.42;;;;;;;13.39;87.91;100427.94;10538321;28;20094;-68
2022/11/03 09:33:39;;;;;;;10.80;2.65;;;;;;;13.36;88.49;100417.69;10538582;28;20115;-67
2022/11/03 09:38:40;;;;;;;9.18;2.33;;;;;;;13.49;89.52;100406.47;10538613;28;20048;-69
2022/11/03 09:43:42;;;;;;;5.05;2.22;;;;;;;13.47;88.35;100397.81;10535643;28;20098;-68
2022/11/03 09:48:47;;;;;;;8.88;2.50;;;;;;;13.39;87.48;100386.03;10537471;28;20055;-69
2022/11/03 09:53:49;;;;;;;10.02;2.20;;;;;;;13.33;88.87;100375.94;10537704;28;20056;-69
2022/11/03 09:58:52;;;;;;;7.45;2.85;;;;;;;13.22;89.41;100368.75;10537713;28;20048;-69
2022/11/03 10:04:00;;;;;;;8.13;2.50;;;;;;;13.22;89.59;100358.25;10537245;28;20047;-68
2022/11/03 10:09:02;;;;;;;6.75;2.30;;;;;;;13.23;88.54;100359.09;10536955;28;20177;-67
2022/11/03 10:14:05;;;;;;;;;;;;;;;13.12;88.90;100337.03;10535283;28;20094;-69
2022/11/03 10:19:13;;;;;;;6.53;2.25;;;;;;;13.17;89.14;100334.09;10528458;28;20410;-69
2022/11/03 10:24:15;;;;;;;7.18;2.78;;;;;;;13.18;88.03;100325.31;10504764;28;20561;-69
2022/11/03 10:29:19;;;;;;;;;;;;;;;13.17;87.74;100317.56;10536336;28;20056;-68
2022/11/03 10:34:34;;;;;;;9.45;2.42;;;;;;;13.34;88.56;100314.72;10537126;28;20014;-69
2022/11/03 10:39:36;;;;;;;8.15;2.60;;;;;;;13.45;88.30;100305.34;10534259;28;20048;-69
2022/11/03 10:44:38;;;;;;;;;;;;;;;13.55;86.27;100295.97;10536699;28;20067;-68
2022/11/03 10:49:41;;;;;;;7.75;2.30;;;;;;;13.80;85.73;100299.66;10536281;28;19946;-66
2022/11/03 10:54:43;;;;;;;8.75;2.63;;;;;;;13.85;84.67;100288.84;10536079;28;20044;-67
2022/11/03 10:59:48;;;;;;;10.60;2.70;;;;;;;13.91;84.27;100285.84;10542685;28;20044;-73
2022/11/03 11:04:59;;;;;;;5.97;2.10;;;;;;;13.94;82.87;100279.53;10544283;28;20052;-72
2022/11/03 11:10:11;;;;;;;7.75;2.47;;;;;;;14.17;83.15;100270.16;10541771;28;20090;-71
2022/11/03 11:15:39;;;;;;;6.15;2.33;;;;;;;14.06;82.59;100257.75;10544056;28;20094;-71
2022/11/03 11:20:42;;;;;;;6.65;2.28;;;;;;;13.97;81.55;100253.13;10544474;28;20105;-69
2022/11/03 11:26:14;;;;;;;10.27;2.28;;;;;;;14.10;81.34;100240.84;10543170;28;20097;-71
2022/11/03 11:31:30;;;;;;;4.78;1.90;;;;;;;14.25;81.13;100219.78;10543869;28;20050;-71
2022/11/03 11:36:34;;;;;;;6.70;2.15;;;;;;;14.20;79.27;100212.19;10543418;28;20052;-70
2022/11/03 11:42:12;;;;;;;7.68;2.50;;;;;;;14.27;79.14;100195.09;10540494;28;20548;-68
2022/11/03 11:47:32;;;;;;;7.45;2.00;;;;;;;14.24;78.75;100176.94;10539886;28;20044;-70
2022/11/03 11:52:43;;;;;;;5.07;2.17;;;;;;;14.27;78.95;100165.41;10542941;28;20488;-70
2022/11/03 11:57:46;;;;;;;8.85;2.33;;;;;;;14.23;77.85;100132.47;10543179;28;20130;-69
2022/11/03 12:02:48;;;;;;;4.88;1.98;;;;;;;14.44;77.52;100109.09;10542490;28;20506;-69
2022/11/03 12:07:51;;;;;;;4.57;2.20;;;;;;;14.49;77.92;100112.25;10542657;28;20059;-68
2022/11/03 12:12:54;;;;;;;6.60;2.15;;;;;;;14.62;76.96;100112.22;10539821;28;20298;-66
2022/11/03 12:17:56;;;;;;;6.80;2.47;;;;;;;14.62;75.57;100098.25;10542137;28;20127;-71
2022/11/03 12:22:59;;;;;;;10.55;2.58;;;;;;;14.85;76.32;100093.97;10540995;28;20097;-70
2022/11/03 12:28:00;;;;;;;5.47;2.17;;;;;;;14.88;74.46;100085.88;10540873;28;20056;-67
2022/11/03 12:33:02;;;;;;;6.93;1.95;;;;;;;14.92;75.03;100068.94;10540681;28;20129;-69
2022/11/03 12:38:06;;;;;;;5.68;1.92;;;;;;;14.99;73.74;100058.81;10541137;28;20052;-69
2022/11/03 12:43:08;;;;;;;3.80;2.00;;;;;;;15.18;74.87;100055.69;10522942;28;20059;-70
2022/11/03 12:48:09;;;;;;;4.60;1.83;;;;;;;15.04;72.88;100037.47;10541354;28;20101;-72
2022/11/03 12:53:12;;;;;;;2.97;1.48;;;;;;;14.92;74.29;100033.97;10540989;28;20101;-70
2022/11/03 12:58:14;;;;;;;5.00;1.75;;;;;;;14.92;74.37;100013.78;10538528;28;20548;-65
2022/11/03 13:03:16;;;;;;;;;;;;;;;14.76;75.08;100000.09;10534910;28;20094;-64
2022/11/03 13:08:19;;;;;;;4.57;2.00;;;;;;;14.77;74.97;99978.16;10541466;28;19981;-64
2022/11/03 13:13:20;;;;;;;5.68;2.00;;;;;;;14.70;74.74;99969.84;10537691;28;20101;-66
2022/11/03 13:18:22;;;;;;;;;;;;;;;14.80;75.18;99962.16;10539733;28;20047;-64
2022/11/03 13:23:25;;;;;;;3.97;1.88;;;;;;;14.77;75.05;99960.59;10539534;28;19920;-64
2022/11/03 13:28:28;;;;;;;5.38;2.30;;;;;;;14.77;76.60;99939.59;10539205;28;20078;-65
2022/11/03 13:33:30;;;;;;;4.90;2.00;;;;;;;14.61;75.86;99934.59;10539250;28;20052;-64
2022/11/03 13:38:33;;;;;;;5.13;2.30;;;;;;;14.57;77.20;99933.16;10537718;28;20052;-64
2022/11/03 13:43:34;;;;;;;6.57;2.40;;;;;;;14.47;76.47;99924.31;10532575;28;20058;-67
2022/11/03 13:48:36;;;;;;;4.10;2.33;;;;;;;14.38;78.64;99926.66;10536977;28;20040;-64
2022/11/03 13:53:39;;;;;;;3.88;2.15;;;;;;;14.33;79.00;99928.78;10537335;28;20473;-65
2022/11/03 13:58:42;;;;;;;6.53;2.13;;;;;;;14.23;79.16;99933.84;10538350;28;20075;-67
2022/11/03 14:03:44;;;;;;;6.32;2.42;;;;;;;14.11;81.58;99930.34;10538162;28;20071;-63
2022/11/03 14:08:49;;;;;;;3.60;2.40;;;;;;;13.82;85.18;99933.25;10538508;28;20044;-66
2022/11/03 14:13:51;;;;;;;7.65;2.10;;;;;;;13.39;89.92;99918.72;10536028;28;20051;-65
2022/11/03 14:18:54;;;;;;;4.45;2.22;;;;;;;13.26;91.55;99922.19;10537945;28;20091;-65
2022/11/03 14:23:57;;;;;;;6.57;2.58;;;;;;;13.10;95.07;99898.81;10536928;28;20102;-65
2022/11/03 14:29:00;;;;;;;8.25;2.60;;;;;;;13.04;93.41;99898.41;10536746;28;20542;-64
2022/11/03 14:34:02;;;;;;;3.20;2.10;;;;;;;12.78;97.43;99904.44;10547437;28;20113;-66
2022/11/03 14:39:06;;;;;;;7.70;2.45;;;;;;;12.59;100.00;99882.09;10552051;28;20052;-68
2022/11/03 14:44:08;;;;;;;5.95;2.50;;;;;;;12.34;100.00;99868.03;10549430;28;20070;-67
2022/11/03 14:49:11;;;;;;;7.03;2.90;;;;;;;12.16;100.00;99850.91;10551898;28;20058;-66
2022/11/03 14:54:14;;;;;;;7.43;2.72;;;;;;;12.02;100.00;99842.19;10551783;28;20052;-68
2022/11/03 14:59:16;;;;;;;4.40;2.35;;;;;;;11.95;100.00;99830.44;10551503;28;20093;-67
2022/11/03 15:04:18;;;;;;;9.38;2.75;;;;;;;11.92;100.00;99807.09;10551320;28;20488;-67
2022/11/03 15:09:22;;;;;;;4.90;2.20;;;;;;;11.92;100.00;99800.09;10551565;28;20048;-69
2022/11/03 15:14:24;;;;;;;4.53;2.50;;;;;;;11.99;100.00;99803.16;10548933;28;20530;-67
2022/11/03 15:19:27;;;;;;;4.78;2.60;;;;;;;12.07;100.00;99806.13;10551050;28;20047;-66
2022/11/03 15:24:30;;;;;;;5.35;2.70;;;;;;;12.12;100.00;99789.28;10551171;28;20487;-67
2022/11/03 15:29:31;;;;;;;4.75;2.90;;;;;;;12.15;100.00;99786.47;10551401;28;20464;-69
2022/11/03 15:34:33;;;;;;;5.88;2.55;;;;;;;12.14;100.00;99769.94;10550950;28;20101;-67
2022/11/03 15:39:36;;;;;;;8.85;3.38;;;;;;;12.14;100.00;99766.50;10549328;28;20433;-67
2022/11/03 15:44:38;;;;;;;6.63;3.15;;;;;;;12.08;100.00;99752.88;10545722;28;20066;-67
2022/11/03 15:49:39;;;;;;;5.18;2.40;;;;;;;12.01;100.00;99733.28;10536434;28;20632;-68
2022/11/03 15:54:42;;;;;;;3.65;2.80;;;;;;;12.05;100.00;99716.44;10540256;28;20078;-68
2022/11/03 15:59:44;;;;;;;5.30;3.28;;;;;;;11.96;100.00;99714.44;10542020;28;20093;-69
2022/11/03 16:04:45;;;;;;;7.25;3.22;;;;;;;12.01;100.00;99716.75;10542191;28;20048;-69
2022/11/03 16:09:50;;;;;;;5.13;3.00;;;;;;;11.92;100.00;99712.97;10540056;28;20868;-67
2022/11/03 16:14:52;;;;;;;8.18;3.17;;;;;;;11.77;100.00;99710.44;10542439;28;20420;-70
2022/11/03 16:19:55;;;;;;;8.05;3.30;;;;;;;11.56;100.00;99702.22;10541996;28;20052;-67
2022/11/03 16:24:58;;;;;;;5.78;3.53;;;;;;;11.44;100.00;99701.25;10541842;28;20056;-68
2022/11/03 16:29:59;;;;;;;10.90;4.32;;;;;;;11.33;100.00;99694.94;10541756;28;20434;-68
2022/11/03 16:35:01;;;;;;;6.10;3.40;;;;;;;11.24;100.00;99700.75;10541177;28;20102;-69
2022/11/03 16:40:06;;;;;;;7.15;3.13;;;;;;;11.15;100.00;99693.50;10538403;28;20048;-70
2022/11/03 16:45:17;;;;;;;6.40;3.33;;;;;;;10.99;100.00;99693.63;10540298;28;20056;-70
2022/11/03 16:50:19;;;;;;;7.35;3.83;;;;;;;10.91;100.00;99681.03;10539818;28;20431;-71
2022/11/03 16:55:22;;;;;;;;;;;;;;;10.80;100.00;99684.31;10538599;28;20446;-72
2022/11/03 17:00:23;;;;;;;10.07;4.07;;;;;;;10.77;100.00;99685.34;10539796;28;19920;-75
2022/11/03 17:05:25;;;;;;;7.32;3.75;;;;;;;10.72;100.00;99676.97;10538997;28;20048;-70
2022/11/03 17:10:30;;;;;;;7.20;4.53;;;;;;;10.70;100.00;99678.84;10536764;28;20047;-71
2022/11/03 17:15:32;;;;;;;7.47;3.83;;;;;;;10.64;100.00;99674.84;10539268;28;20054;-69
2022/11/03 17:20:33;;;;;;;4.28;3.78;;;;;;;10.68;100.00;99678.09;10538859;28;20470;-71
2022/11/03 17:25:36;;;;;;;10.30;4.40;;;;;;;10.67;100.00;99668.59;10538560;28;20052;-69
2022/11/03 17:30:40;;;;;;;8.88;4.28;;;;;;;10.63;100.00;99654.06;10538921;28;20040;-71
2022/11/03 17:35:44;;;;;;;6.45;3.53;;;;;;;10.71;100.00;99643.16;10538076;28;20469;-68
2022/11/03 17:40:48;;;;;;;6.78;3.92;;;;;;;10.72;100.00;99634.38;10535415;28;20052;-70
2022/11/03 17:45:50;;;;;;;6.80;4.40;;;;;;;10.65;100.00;99639.16;10538345;28;20063;-69
2022/11/03 17:50:55;;;;;;;;;;;;;;;10.70;100.00;99647.53;10539217;28;20058;-68
2022/11/03 17:56:01;;;;;;;6.25;4.57;;;;;;;10.68;100.00;99639.78;10537505;28;20345;-71
2022/11/03 18:01:04;;;;;;;7.55;4.50;;;;;;;10.66;100.00;99635.59;10538032;28;20109;-70
2022/11/03 18:06:15;;;;;;;4.35;3.75;;;;;;;10.65;100.00;99633.94;10537070;28;20040;-70
2022/11/03 18:16:49;;;;;;;7.70;4.22;;;;;;;10.59;100.00;99642.13;10537012;28;20062;-68
2022/11/03 18:21:51;;;;;;;7.05;4.57;;;;;;;10.59;100.00;99642.13;10537336;28;20101;-68
2022/11/03 18:26:54;;;;;;;4.75;4.18;;;;;;;10.60;100.00;99641.22;10536925;28;20048;-65
2022/11/03 18:31:56;;;;;;;5.03;3.80;;;;;;;10.65;100.00;99641.75;10536714;28;20052;-69
2022/11/03 18:36:58;;;;;;;7.75;4.57;;;;;;;10.62;100.00;99652.38;10536334;28;20484;-67
2022/11/03 18:42:05;;;;;;;5.90;4.38;;;;;;;10.64;100.00;99643.53;10534283;28;20048;-71
2022/11/03 18:47:07;;;;;;;6.18;4.07;;;;;;;10.61;100.00;99637.66;10536211;28;20106;-69
2022/11/03 18:52:14;;;;;;;7.00;4.35;;;;;;;10.59;100.00;99634.31;10536525;28;20101;-68
2022/11/03 18:57:22;;;;;;;8.27;4.45;;;;;;;10.58;100.00;99622.19;10536082;28;20404;-67
2022/11/03 19:02:26;;;;;;;4.95;4.00;;;;;;;10.64;100.00;99616.63;10536363;28;20093;-71
2022/11/03 19:07:34;;;;;;;6.45;4.05;;;;;;;10.59;100.00;99603.84;10536084;28;20048;-67
2022/11/03 19:12:42;;;;;;;4.97;3.63;;;;;;;10.51;100.00;99585.22;10533449;28;20076;-69
2022/11/03 19:17:43;;;;;;;5.90;4.85;;;;;;;10.47;100.00;99589.78;10536972;28;20058;-69
2022/11/03 19:22:46;;;;;;;5.97;3.72;;;;;;;10.49;100.00;99593.16;10543582;28;20047;-68
2022/11/03 19:27:49;;;;;;;5.90;4.22;;;;;;;10.51;100.00;99604.31;10543429;28;20056;-70
2022/11/03 19:32:54;;;;;;;6.35;4.13;;;;;;;10.47;100.00;99600.22;10542868;28;20461;-68
2022/11/03 19:38:02;;;;;;;4.75;4.05;;;;;;;10.46;100.00;99598.56;10542965;28;20055;-67
2022/11/03 19:43:09;;;;;;;5.75;4.22;;;;;;;10.42;100.00;99597.03;10540467;28;20059;-68
2022/11/03 19:48:12;;;;;;;4.30;3.80;;;;;;;10.42;100.00;99591.81;10543130;28;20079;-68
2022/11/03 19:53:20;;;;;;;5.55;4.25;;;;;;;10.46;100.00;99593.34;10541833;28;20073;-67
2022/11/03 19:58:26;;;;;;;8.95;4.93;;;;;;;10.50;100.00;99592.22;10540651;28;20112;-67
2022/11/03 20:03:28;;;;;;;6.75;4.13;;;;;;;10.53;100.00;99581.59;10539818;28;20491;-67
2022/11/03 20:08:33;;;;;;;6.43;4.45;;;;;;;10.52;100.00;99566.88;10540285;28;20488;-69
2022/11/03 20:13:42;;;;;;;8.73;5.28;;;;;;;10.50;100.00;99573.94;10537622;28;20043;-69
2022/11/03 20:18:44;;;;;;;6.38;4.63;;;;;;;10.52;100.00;99572.09;10540555;28;20055;-68
2022/11/03 20:23:48;;;;;;;8.52;5.18;;;;;;;10.53;100.00;99563.31;10540391;28;20050;-68
2022/11/03 20:28:59;;;;;;;7.72;5.03;;;;;;;10.55;100.00;99558.03;10539305;28;20121;-69
2022/11/03 20:34:01;;;;;;;8.35;5.00;;;;;;;10.54;100.00;99559.78;10539513;28;20056;-67
2022/11/03 20:39:03;;;;;;;6.13;4.78;;;;;;;10.56;100.00;99577.94;10539580;28;20058;-72
2022/11/03 20:44:08;;;;;;;8.18;4.28;;;;;;;10.59;100.00;99576.91;10537133;28;20046;-69
2022/11/03 20:49:10;;;;;;;6.60;5.00;;;;;;;10.56;100.00;99588.38;10538949;28;20116;-68
2022/11/03 20:54:18;;;;;;;6.88;5.25;;;;;;;10.59;100.00;99597.78;10539962;28;20040;-68
2022/11/03 20:59:23;;;;;;;6.97;4.70;;;;;;;10.54;100.00;99598.91;10540355;28;20045;-67
2022/11/03 21:04:28;;;;;;;6.50;5.40;;;;;;;10.48;100.00;99606.28;10528255;28;20101;-69
2022/11/03 21:09:29;;;;;;;5.38;4.53;;;;;;;10.40;100.00;99611.94;10515316;28;20094;-70
2022/11/03 21:14:33;;;;;;;8.63;6.00;;;;;;;10.33;100.00;99652.38;10512313;28;20078;-68
2022/11/03 21:25:12;;;;;;;9.23;6.15;;;;;;;10.14;100.00;99703.00;10405711;28;20093;-73
2022/11/03 21:30:17;;;;;;;7.57;5.68;;;;;;;10.03;100.00;99691.44;10497932;28;20048;-68
2022/11/03 21:35:22;;;;;;;8.63;6.10;;;;;;;9.97;100.00;99701.38;10497861;28;20094;-68
2022/11/03 21:40:23;;;;;;;7.80;5.07;;;;;;;9.84;100.00;99722.94;10494180;28;20044;-68
2022/11/03 21:45:28;;;;;;;7.35;5.95;;;;;;;9.78;100.00;99723.28;10496015;28;20102;-71
2022/11/03 21:50:29;;;;;;;8.48;6.07;;;;;;;9.75;100.00;99729.50;10496484;28;20098;-69
2022/11/03 21:55:31;;;;;;;6.20;4.10;;;;;;;9.69;100.00;99737.69;10495764;28;20106;-70
2022/11/03 22:00:35;;;;;;;5.45;4.18;;;;;;;9.61;100.00;99742.50;10496254;28;20102;-70
2022/11/03 22:05:36;;;;;;;4.35;3.20;;;;;;;9.58;100.00;99720.03;10495866;28;20076;-73
2022/11/03 22:10:39;;;;;;;3.13;2.40;;;;;;;9.55;100.00;99719.38;10492892;28;20052;-71
2022/11/03 22:31:41;;;;;;;3.13;2.40;;;;;;;9.25;100.00;99763.50;10495283;28;20174;-72
2022/11/03 22:36:43;;;;;;;3.10;2.80;;;;;;;9.24;100.00;99756.59;10495009;28;20044;-76
2022/11/03 22:47:06;;;;;;;5.05;4.05;;;;;;;9.33;100.00;99790.88;10495190;28;20064;-71
2022/11/03 22:52:10;;;;;;;3.95;3.47;;;;;;;9.34;100.00;99802.97;10496480;28;20102;-71
2022/11/03 22:57:12;;;;;;;4.95;4.30;;;;;;;9.14;100.00;99807.50;10503447;28;20097;-70
2022/11/03 23:02:17;;;;;;;;;;;;;;;9.00;100.00;99803.84;10503306;28;20059;-73
2022/11/03 23:07:18;;;;;;;5.68;5.03;;;;;;;8.96;100.00;99798.91;10503226;28;19920;-72
2022/11/03 23:12:20;;;;;;;8.05;5.57;;;;;;;8.94;100.00;99806.78;10500394;28;20048;-74
2022/11/03 23:21:05;;;;;;;10.50;6.85;;;;;;;8.90;100.00;99815.66;10501978;28;20148;-73
2022/11/03 23:22:45;;;;;;;9.95;7.35;;;;;;;8.88;100.00;99822.69;10501588;28;20531;-72
2022/11/03 23:27:47;;;;;;;9.75;8.02;;;;;;;8.89;100.00;99837.38;10501439;28;20053;-75
2022/11/03 23:32:50;;;;;;;11.93;8.45;;;;;;;8.93;100.00;99846.72;10501917;28;20094;-74
2022/11/03 23:37:52;;;;;;;16.33;11.40;;;;;;;9.00;100.00;99842.88;10501235;28;20106;-75
2022/11/03 23:42:55;;;;;;;16.23;10.82;;;;;;;9.08;100.00;99857.25;10499498;28;20048;-71
2022/11/03 23:53:17;;;;;;;16.40;10.13;;;;;;;9.05;100.00;99876.47;10501044;28;20053;-75
2022/11/03 23:58:19;;;;;;;12.00;9.57;;;;;;;9.01;100.00;99894.00;10500700;28;20056;-73
